CDT,Max TemperatureF,Mean TemperatureF,Min TemperatureF,Max Dew PointF,MeanDew PointF,Min DewpointF,Max Humidity, Mean Humidity, Min Humidity, Max Sea Level PressureIn, Mean Sea Level PressureIn, Min Sea Level PressureIn, Max VisibilityMiles, Mean VisibilityMiles, Min VisibilityMiles, Max Wind SpeedMPH, Mean Wind SpeedMPH, Max Gust SpeedMPH,PrecipitationIn, CloudCover, Events, WindDirDegrees
2012-10-1,71,57,42,52,40,31,78,49,20,30.07,30.01,29.92,10,10,10,25,12,32,T,1,,348
2012-10-2,74,53,32,35,28,21,89,52,14,30.02,29.92,29.81,10,10,10,18,6,28,0.00,0,,185
2012-10-3,80,62,43,40,31,23,66,41,16,29.92,29.80,29.68,10,10,6,37,13,49,0.00,1,,184
2012-10-4,51,44,36,40,31,24,85,64,42,30.33,30.17,29.96,10,10,7,32,18,40,T,7,,312
2012-10-5,50,39,28,26,22,18,79,53,24,30.34,30.31,30.26,10,10,10,26,13,36,0.00,0,,311
2012-10-6,48,36,24,27,21,19,81,62,29,30.40,30.35,30.30,10,10,10,17,8,23,0.00,4,,317
2012-10-7,58,40,22,24,19,16,81,50,19,30.31,30.10,29.89,10,10,10,16,5,29,0.00,0,,227
2012-10-8,71,56,41,43,31,20,64,45,26,29.88,29.77,29.67,10,10,9,22,10,32,T,5,Rain,241
2012-10-9,54,44,33,43,31,23,80,58,36,30.12,29.94,29.78,10,10,10,29,13,37,T,6,Rain,301
2012-10-10,62,44,26,30,24,20,81,53,24,30.20,30.07,29.88,10,10,10,20,9,29,0.00,0,,228
2012-10-11,54,40,26,34,28,21,75,58,41,30.41,30.17,29.86,10,10,10,24,9,33,T,1,,10
2012-10-12,56,38,20,37,21,10,89,52,13,30.45,30.25,29.95,10,10,10,29,12,38,0.00,3,,157
2012-10-13,74,62,49,52,46,37,87,67,41,29.91,29.72,29.63,10,10,5,18,8,23,0.00,4,,191
2012-10-14,64,50,36,44,34,30,92,62,31,29.98,29.89,29.75,10,10,10,24,12,30,0.00,0,,336
2012-10-15,73,52,31,42,34,28,89,57,25,29.99,29.87,29.65,10,10,10,18,9,24,0.00,0,,175
2012-10-16,74,62,50,46,44,42,74,52,28,29.62,29.49,29.30,10,10,10,18,8,22,T,1,,249
2012-10-17,66,54,42,50,41,31,86,67,41,29.49,29.35,29.16,10,10,8,37,21,48,T,7,Rain,290
2012-10-18,45,43,40,42,39,36,93,87,68,29.57,29.42,29.30,10,8,4,39,27,52,0.58,8,Rain,309
2012-10-19,44,42,39,39,38,37,93,89,81,29.83,29.73,29.59,10,9,2,37,16,45,0.06,8,Rain,326
2012-10-20,61,46,31,43,38,30,100,83,49,29.82,29.76,29.69,10,7,0,17,8,23,0.00,1,Fog,167
2012-10-21,68,57,45,46,43,40,93,68,42,29.92,29.78,29.67,10,10,5,18,9,23,0.00,1,,92
2012-10-22,60,53,45,50,47,44,100,86,72,29.94,29.87,29.78,10,9,6,17,10,21,T,6,,37
2012-10-23,60,52,43,55,53,44,100,89,78,29.82,29.72,29.67,10,5,0,13,4,15,T,7,Fog,177
2012-10-24,52,46,39,51,43,31,100,75,50,29.91,29.85,29.81,10,8,2,24,14,32,0.00,6,Fog,6
2012-10-25,39,36,32,36,30,25,92,78,64,30.35,29.99,29.83,10,6,1,29,17,37,0.22,8,Rain-Snow,336
2012-10-26,37,32,27,25,24,22,78,65,52,30.49,30.43,30.35,10,10,10,20,9,25,0.00,7,,295
2012-10-27,41,33,24,32,26,20,89,74,59,30.40,30.34,30.26,10,10,10,16,9,21,T,4,Rain,180
2012-10-28,51,41,31,32,30,26,89,68,46,30.30,30.24,30.14,10,10,10,21,12,26,0.00,5,,161
2012-10-29,55,47,38,31,30,28,70,56,41,30.19,30.15,30.10,10,10,10,22,13,28,0.00,1,,154
2012-10-30,48,39,30,30,28,25,75,57,39,30.16,30.13,30.09,10,10,10,15,7,20,T,6,Rain,114
2012-10-31,59,43,26,37,30,24,92,66,39,30.09,30.04,29.95,10,10,9,10,2,13,0.00,0,,208